Time;durP1;ratioP1;P1;durP2;ratioP2;P2;SDS_P1;SDS_P2;PMS_P1;PMS_P2;Temp;Humidity;BMP_temperature;BMP_pressure;BME280_temperature;BME280_humidity;BME280_pressure;Samples;Min_cycle;Max_cycle;Signal;HPM_P1;HPM_P2
2020/12/17 00:00:22;;;;;;;4.40;1.33;;;;;;;9.53;100.00;101125.50;4967677;28;20445;-77
2020/12/17 00:02:48;;;;;;;3.20;0.97;;;;;;;9.24;100.00;101125.69;4962363;28;20677;-79
2020/12/17 00:05:14;;;;;;;2.60;0.70;;;;;;;9.35;100.00;101116.88;4965018;28;20505;-77
2020/12/17 00:07:40;;;;;;;2.40;0.77;;;;;;;9.30;100.00;101113.63;4952657;28;20706;-77
2020/12/17 00:10:07;;;;;;;3.33;0.70;;;;;;;9.31;100.00;101107.13;4966973;28;20655;-77
2020/12/17 00:12:37;;;;;;;3.33;1.00;;;;;;;9.09;100.00;101103.75;4961490;28;20447;-77
2020/12/17 00:15:07;;;;;;;4.50;1.00;;;;;;;8.99;100.00;101106.06;4968197;28;20464;-77
2020/12/17 00:17:46;;;;;;;4.13;1.00;;;;;;;9.09;100.00;101103.75;4959817;28;20444;-77
2020/12/17 00:20:14;;;;;;;4.60;1.07;;;;;;;9.17;100.00;101112.03;4968659;28;20847;-77
2020/12/17 00:22:40;;;;;;;2.53;0.70;;;;;;;9.09;100.00;101094.91;4970411;28;20433;-77
2020/12/17 00:25:08;;;;;;;3.77;1.00;;;;;;;9.08;100.00;101090.63;4967117;28;20543;-77
2020/12/17 00:27:33;;;;;;;4.43;1.13;;;;;;;9.33;100.00;101096.84;4970119;28;20444;-77
2020/12/17 00:29:59;;;;;;;3.20;0.93;;;;;;;9.07;100.00;101092.56;4970256;28;20531;-77
2020/12/17 00:32:25;;;;;;;3.80;1.00;;;;;;;8.96;100.00;101086.03;4967234;28;20930;-77
2020/12/17 00:34:51;;;;;;;3.60;0.70;;;;;;;8.99;100.00;101088.06;4972023;28;20206;-76
2020/12/17 00:37:17;;;;;;;2.77;0.43;;;;;;;9.01;100.00;101082.34;4969462;28;20196;-77
2020/12/17 00:39:42;;;;;;;2.77;0.87;;;;;;;8.88;100.00;101084.22;4972021;28;20575;-77
2020/12/17 00:42:08;;;;;;;3.93;0.77;;;;;;;8.93;100.00;101067.09;4951897;29;20450;-77
2020/12/17 00:44:33;;;;;;;3.97;1.07;;;;;;;9.13;100.00;101054.72;4938244;28;20198;-77
2020/12/17 00:46:59;;;;;;;3.53;0.93;;;;;;;8.96;100.00;101075.28;4974060;28;20187;-77
2020/12/17 00:49:25;;;;;;;2.87;0.70;;;;;;;8.91;100.00;101064.75;4955895;28;20194;-76
2020/12/17 00:51:56;;;;;;;2.83;0.73;;;;;;;9.00;100.00;101072.72;4972844;28;20174;-76
2020/12/17 00:54:22;;;;;;;6.20;1.57;;;;;;;8.93;100.00;101067.09;4973149;28;20217;-78
2020/12/17 00:56:47;;;;;;;2.70;0.67;;;;;;;8.95;100.00;101065.66;4965180;28;20469;-77
2020/12/17 00:59:13;;;;;;;4.20;1.17;;;;;;;8.91;100.00;101078.19;4971493;28;20225;-77
2020/12/17 01:01:39;;;;;;;4.00;0.90;;;;;;;8.80;100.00;101070.88;4974026;28;20425;-77
2020/12/17 01:04:05;;;;;;;6.33;1.57;;;;;;;9.00;100.00;101068.13;4945822;28;20217;-77
2020/12/17 01:06:31;;;;;;;3.83;0.67;;;;;;;8.90;100.00;101059.72;4973463;28;20437;-76
2020/12/17 01:08:56;;;;;;;4.43;0.90;;;;;;;8.75;100.00;101057.69;4971666;28;20192;-77
2020/12/17 01:11:30;;;;;;;4.77;1.17;;;;;;;8.71;100.00;101054.09;4945129;28;20252;-76
2020/12/17 01:13:56;;;;;;;1.67;0.50;;;;;;;8.82;100.00;101056.03;4973286;28;20193;-77
2020/12/17 01:16:22;;;;;;;3.10;0.83;;;;;;;8.76;100.00;101062.72;4944608;28;20446;-77
2020/12/17 01:18:48;;;;;;;3.03;0.93;;;;;;;8.85;100.00;101052.66;4968032;28;20949;-77
2020/12/17 01:21:14;;;;;;;3.20;0.70;;;;;;;8.82;100.00;101060.59;4970656;28;20438;-78
2020/12/17 01:23:40;;;;;;;5.20;1.00;;;;;;;8.51;100.00;101044.97;4941002;28;20458;-78
2020/12/17 01:26:09;;;;;;;1.70;0.53;;;;;;;8.56;100.00;101047.44;4944791;28;20452;-76
2020/12/17 01:28:39;;;;;;;4.30;0.73;;;;;;;8.57;100.00;101050.91;4968206;28;20188;-76
2020/12/17 01:31:10;;;;;;;4.33;1.00;;;;;;;8.75;100.00;101053.09;4972117;28;20433;-77
2020/12/17 01:33:37;;;;;;;5.30;1.00;;;;;;;8.88;100.00;101045.84;4964132;28;20449;-77
2020/12/17 01:36:05;;;;;;;4.33;0.80;;;;;;;8.72;100.00;101059.13;4973537;28;20422;-77
2020/12/17 01:38:31;;;;;;;2.53;0.40;;;;;;;8.50;100.00;101059.50;4971281;28;20929;-77
2020/12/17 01:40:57;;;;;;;2.00;0.50;;;;;;;8.72;100.00;101059.13;4966417;28;20456;-77
2020/12/17 01:43:23;;;;;;;5.83;1.27;;;;;;;8.40;100.00;101062.59;4966545;28;20445;-77
2020/12/17 01:45:48;;;;;;;2.60;0.60;;;;;;;8.37;100.00;101062.47;4968732;28;20213;-77
2020/12/17 01:48:18;;;;;;;3.73;1.03;;;;;;;8.38;100.00;101061.38;4970221;28;20726;-78
2020/12/17 01:50:47;;;;;;;4.60;1.10;;;;;;;8.33;100.00;101065.03;4959566;28;20200;-78
2020/12/17 01:53:13;;;;;;;3.80;0.70;;;;;;;8.34;100.00;101069.28;4964912;28;20450;-77
2020/12/17 01:55:40;;;;;;;2.70;0.73;;;;;;;8.43;100.00;101071.88;4973258;28;20477;-77
2020/12/17 01:58:06;;;;;;;2.67;0.73;;;;;;;8.48;100.00;101069.78;4960686;28;20438;-77
2020/12/17 02:00:36;;;;;;;6.10;0.83;;;;;;;8.57;100.00;101058.97;4969506;28;20445;-77
2020/12/17 02:03:04;;;;;;;4.17;0.70;;;;;;;8.66;100.00;101070.41;4971437;28;20992;-77
2020/12/17 02:05:30;;;;;;;3.03;0.70;;;;;;;8.66;100.00;101065.81;4974707;28;20472;-77
2020/12/17 02:07:57;;;;;;;3.20;1.10;;;;;;;8.63;100.00;101071.84;4965564;28;20445;-77
2020/12/17 02:10:24;;;;;;;1.87;0.50;;;;;;;8.46;100.00;101061.28;4970241;28;20867;-77
2020/12/17 02:12:50;;;;;;;3.67;0.90;;;;;;;8.40;100.00;101065.28;4971636;28;20517;-77
2020/12/17 02:15:17;;;;;;;4.90;1.00;;;;;;;8.45;100.00;101057.03;4969538;28;20469;-76
2020/12/17 02:17:43;;;;;;;3.60;0.97;;;;;;;8.41;100.00;101068.75;4971308;28;20473;-77
2020/12/17 02:20:09;;;;;;;3.00;1.10;;;;;;;8.52;100.00;101067.22;4969393;28;20480;-76
2020/12/17 02:22:35;;;;;;;4.30;1.00;;;;;;;8.55;100.00;101061.19;4972700;28;20195;-77
2020/12/17 02:25:04;;;;;;;4.17;1.00;;;;;;;8.61;100.00;101066.03;4952489;28;20471;-77
2020/12/17 02:27:29;;;;;;;6.33;1.23;;;;;;;8.81;100.00;101049.06;4972182;28;21031;-77
2020/12/17 02:29:55;;;;;;;3.27;1.00;;;;;;;8.56;100.00;101054.69;4966763;28;20591;-77
2020/12/17 02:32:20;;;;;;;4.20;1.20;;;;;;;8.48;100.00;101051.00;4950841;28;20265;-77
2020/12/17 02:34:46;;;;;;;3.30;1.20;;;;;;;8.58;100.00;101049.78;4952563;28;20198;-77
2020/12/17 02:37:13;;;;;;;3.80;1.10;;;;;;;8.63;100.00;101044.22;4972734;28;20198;-77
2020/12/17 02:39:38;;;;;;;2.50;0.70;;;;;;;8.47;100.00;101041.38;4953340;28;20182;-77
2020/12/17 02:42:04;;;;;;;3.50;0.77;;;;;;;8.36;100.00;101036.75;4963908;28;20489;-78
2020/12/17 02:44:29;;;;;;;2.03;0.53;;;;;;;8.40;100.00;101046.47;4953988;28;20218;-77
2020/12/17 02:46:55;;;;;;;3.83;1.20;;;;;;;8.37;100.00;101038.31;4973672;28;20938;-76
2020/12/17 02:49:21;;;;;;;3.30;0.70;;;;;;;8.42;100.00;101046.94;4971724;28;20188;-77
2020/12/17 02:51:46;;;;;;;3.20;0.73;;;;;;;8.45;100.00;101046.28;4968110;28;20213;-76
2020/12/17 02:54:12;;;;;;;2.43;0.60;;;;;;;8.44;100.00;101046.63;4953792;28;20345;-77
2020/12/17 02:56:37;;;;;;;3.43;0.73;;;;;;;8.50;100.00;101053.34;4963990;28;20610;-76
2020/12/17 02:59:03;;;;;;;3.17;1.03;;;;;;;8.46;100.00;101047.09;4971081;28;20186;-77
2020/12/17 03:01:29;;;;;;;2.50;0.70;;;;;;;8.63;100.00;101052.28;4974518;28;20185;-76
2020/12/17 03:03:54;;;;;;;3.07;0.80;;;;;;;8.67;100.00;101043.22;4969105;28;20283;-76
2020/12/17 03:06:20;;;;;;;3.30;0.90;;;;;;;8.73;100.00;101044.56;4962461;28;20202;-77
2020/12/17 03:08:46;;;;;;;2.70;0.83;;;;;;;8.84;100.00;101048.44;4959315;28;20185;-77
2020/12/17 03:11:12;;;;;;;2.70;0.70;;;;;;;8.60;100.00;101053.72;4968256;28;20186;-77
2020/12/17 03:13:37;;;;;;;5.10;1.30;;;;;;;8.65;100.00;101044.69;4948526;28;20453;-77
2020/12/17 03:16:03;;;;;;;4.43;1.07;;;;;;;8.74;100.00;101040.78;4951679;28;20174;-77
2020/12/17 03:18:28;;;;;;;5.00;1.20;;;;;;;8.36;100.00;101042.91;4969658;28;20178;-77
2020/12/17 03:20:54;;;;;;;2.80;0.57;;;;;;;8.30;100.00;101041.56;4951314;28;20186;-76
2020/12/17 03:23:19;;;;;;;3.20;1.50;;;;;;;8.25;100.00;101039.06;4971449;28;20212;-76
2020/12/17 03:25:45;;;;;;;4.07;1.27;;;;;;;8.27;100.00;101031.47;4968843;28;20229;-78
2020/12/17 03:28:10;;;;;;;2.73;0.73;;;;;;;8.27;100.00;101030.66;4970318;28;20182;-76
2020/12/17 03:30:36;;;;;;;3.20;1.03;;;;;;;8.31;100.00;101029.69;4970296;28;20194;-77
2020/12/17 03:33:01;;;;;;;2.43;0.73;;;;;;;8.35;100.00;101030.59;4946394;28;20538;-76
2020/12/17 03:35:47;;;;;;;2.80;0.87;;;;;;;8.35;100.00;101033.28;4963427;28;20349;-76
2020/12/17 03:38:13;;;;;;;5.70;1.00;;;;;;;8.51;100.00;101033.44;4913618;29;20192;-77
2020/12/17 03:40:38;;;;;;;2.60;0.60;;;;;;;8.50;100.00;101031.88;4892302;29;20981;-77
2020/12/17 03:43:04;;;;;;;2.93;1.03;;;;;;;8.47;100.00;101027.19;4905697;29;20704;-76
2020/12/17 03:45:29;;;;;;;3.77;0.90;;;;;;;8.40;100.00;101026.94;4909467;29;20223;-77
2020/12/17 03:47:55;;;;;;;2.47;0.63;;;;;;;8.47;100.00;101022.59;4887347;29;20203;-77
2020/12/17 03:50:20;;;;;;;4.03;0.73;;;;;;;8.29;100.00;101023.88;4909969;29;20208;-77
2020/12/17 03:52:46;;;;;;;2.13;0.70;;;;;;;8.20;100.00;101021.25;4908183;29;20200;-77
2020/12/17 03:55:12;;;;;;;2.80;0.60;;;;;;;8.27;100.00;101001.94;4908786;29;20239;-77
2020/12/17 03:57:37;;;;;;;3.97;0.83;;;;;;;8.32;100.00;101009.81;4893561;29;20748;-77
2020/12/17 04:00:05;;;;;;;4.10;1.40;;;;;;;8.31;100.00;101016.28;4897138;29;20195;-77
2020/12/17 04:02:30;;;;;;;2.40;0.70;;;;;;;8.28;100.00;101018.84;4908262;29;20214;-77
2020/12/17 04:04:56;;;;;;;4.80;1.20;;;;;;;8.36;100.00;101018.78;4913510;29;20484;-76
2020/12/17 04:07:24;;;;;;;4.27;0.93;;;;;;;8.32;100.00;101025.13;4908871;29;20200;-76
2020/12/17 04:09:50;;;;;;;5.07;1.10;;;;;;;8.24;100.00;101016.00;4892046;29;20188;-76
2020/12/17 04:12:15;;;;;;;3.07;1.03;;;;;;;8.27;100.00;101015.38;4912912;29;20478;-76
2020/12/17 04:14:41;;;;;;;2.80;1.00;;;;;;;8.32;100.00;101015.19;4931641;28;20292;-77
2020/12/17 04:17:07;;;;;;;3.67;1.20;;;;;;;8.34;100.00;101007.59;4970767;28;20174;-75
2020/12/17 04:19:32;;;;;;;3.00;0.83;;;;;;;8.23;100.00;101016.34;4964157;28;20193;-75
2020/12/17 04:21:58;;;;;;;2.07;0.60;;;;;;;8.22;100.00;101023.59;4940777;28;20190;-76
2020/12/17 04:24:23;;;;;;;3.30;0.63;;;;;;;8.27;100.00;101019.94;4972556;28;20225;-76
2020/12/17 04:26:52;;;;;;;3.07;0.90;;;;;;;8.03;100.00;101010.66;4952907;28;20187;-77
2020/12/17 04:29:18;;;;;;;4.23;1.03;;;;;;;8.12;100.00;101016.75;4971642;28;20667;-76
2020/12/17 04:31:44;;;;;;;2.00;0.50;;;;;;;7.82;100.00;101006.44;4950974;28;20430;-76
2020/12/17 04:34:10;;;;;;;3.37;1.20;;;;;;;7.95;100.00;101011.53;4968400;28;20496;-76
2020/12/17 04:36:36;;;;;;;3.60;0.70;;;;;;;8.21;100.00;101012.06;4948525;28;20201;-77
2020/12/17 04:39:03;;;;;;;1.77;0.30;;;;;;;8.15;100.00;101015.28;4953261;28;20178;-77
2020/12/17 04:41:30;;;;;;;2.90;0.50;;;;;;;7.93;100.00;101007.59;4968711;28;20879;-76
2020/12/17 04:43:56;;;;;;;2.93;0.60;;;;;;;8.03;100.00;101002.59;4970926;28;21260;-76
2020/12/17 04:46:43;;;;;;;1.87;0.40;;;;;;;8.19;100.00;101000.09;4972808;28;20437;-77
2020/12/17 04:49:12;;;;;;;2.57;0.77;;;;;;;8.24;100.00;101005.28;4912733;29;20669;-77
2020/12/17 04:51:38;;;;;;;3.77;0.77;;;;;;;8.37;100.00;101000.75;4913014;29;20912;-76
2020/12/17 04:54:03;;;;;;;2.33;0.60;;;;;;;8.54;100.00;100996.00;4912425;29;20551;-76
2020/12/17 04:56:37;;;;;;;3.60;1.13;;;;;;;8.44;100.00;101009.81;4911821;29;20198;-76
2020/12/17 04:59:04;;;;;;;2.83;1.10;;;;;;;8.36;100.00;101010.72;4902535;29;20232;-76
2020/12/17 05:01:32;;;;;;;2.20;0.60;;;;;;;8.17;100.00;101007.69;4907454;29;20948;-76
2020/12/17 05:03:58;;;;;;;2.10;0.70;;;;;;;8.27;100.00;100996.59;4890634;29;20480;-76
2020/12/17 05:06:26;;;;;;;2.70;0.70;;;;;;;8.18;100.00;100990.50;4896223;29;20448;-76
2020/12/17 05:08:54;;;;;;;2.00;0.47;;;;;;;8.31;100.00;100980.59;4891264;29;20210;-78
2020/12/17 05:11:20;;;;;;;3.67;0.80;;;;;;;8.42;100.00;100981.78;4897503;29;20452;-76
2020/12/17 05:13:46;;;;;;;2.50;0.80;;;;;;;8.33;100.00;100991.78;4911465;29;21038;-77
2020/12/17 05:16:12;;;;;;;2.13;0.50;;;;;;;8.32;100.00;100991.03;4907197;29;20606;-76
2020/12/17 05:18:37;;;;;;;4.60;0.67;;;;;;;8.40;100.00;100990.13;4912661;29;20487;-77
2020/12/17 05:21:04;;;;;;;3.30;1.20;;;;;;;8.50;100.00;100976.31;4913959;29;20288;-76
2020/12/17 05:23:29;;;;;;;4.10;0.83;;;;;;;8.51;100.00;100969.03;4914459;29;20362;-76
2020/12/17 05:25:56;;;;;;;3.03;0.60;;;;;;;8.55;100.00;100964.56;4933309;28;20473;-77
2020/12/17 05:28:26;;;;;;;2.60;0.90;;;;;;;8.32;100.00;100985.66;4954260;28;20178;-76
2020/12/17 05:30:51;;;;;;;2.67;0.70;;;;;;;8.12;100.00;100983.75;4966285;28;20481;-76
2020/12/17 05:33:17;;;;;;;6.10;1.03;;;;;;;8.17;100.00;100978.97;4954755;28;20437;-77
2020/12/17 05:35:42;;;;;;;3.33;0.77;;;;;;;8.21;100.00;100979.88;4946200;28;20213;-76
2020/12/17 05:38:10;;;;;;;2.17;0.50;;;;;;;8.21;100.00;100979.88;4973267;28;20178;-77
2020/12/17 05:40:38;;;;;;;2.30;0.60;;;;;;;8.28;100.00;100973.22;4973053;28;20174;-76
2020/12/17 05:43:04;;;;;;;3.63;0.90;;;;;;;8.11;100.00;100992.91;4972720;28;20445;-76
2020/12/17 05:45:30;;;;;;;2.73;0.70;;;;;;;8.30;100.00;100981.72;4968539;28;21410;-76
2020/12/17 05:48:07;;;;;;;4.67;1.10;;;;;;;8.09;100.00;100979.84;4966789;28;20448;-76
2020/12/17 05:50:33;;;;;;;2.20;0.53;;;;;;;8.18;100.00;100977.09;4951469;28;20737;-77
2020/12/17 05:53:03;;;;;;;2.13;0.33;;;;;;;8.28;100.00;100989.34;4968118;28;20532;-76
2020/12/17 05:55:32;;;;;;;2.60;0.60;;;;;;;8.26;100.00;101005.75;4970354;28;20477;-77
2020/12/17 05:57:58;;;;;;;2.47;0.57;;;;;;;8.06;100.00;101001.97;4969650;28;20468;-77
2020/12/17 06:00:24;;;;;;;2.43;0.53;;;;;;;8.16;100.00;100996.19;4958195;28;20434;-77
2020/12/17 06:02:49;;;;;;;2.67;0.70;;;;;;;8.11;100.00;101001.75;4960292;28;20433;-76
2020/12/17 06:05:21;;;;;;;2.50;0.60;;;;;;;8.11;100.00;100993.69;4969456;28;20252;-77
2020/12/17 06:07:51;;;;;;;2.20;0.50;;;;;;;8.01;100.00;101014.78;4971531;28;20557;-77
2020/12/17 06:10:20;;;;;;;2.33;0.50;;;;;;;8.08;100.00;101021.19;4969324;28;20460;-76
2020/12/17 06:12:50;;;;;;;2.33;0.50;;;;;;;8.21;100.00;101013.97;4961083;28;21400;-77
2020/12/17 06:15:21;;;;;;;4.20;0.73;;;;;;;8.35;100.00;101013.72;4969145;28;20671;-76
2020/12/17 06:17:58;;;;;;;4.10;0.73;;;;;;;8.35;100.00;101003.78;4954973;28;20500;-77
2020/12/17 06:20:25;;;;;;;2.43;0.60;;;;;;;8.56;100.00;100999.13;4966152;28;20459;-76
2020/12/17 06:22:55;;;;;;;3.00;0.53;;;;;;;8.46;100.00;101012.97;4953333;28;20448;-77
2020/12/17 06:25:22;;;;;;;2.70;0.50;;;;;;;8.53;100.00;100999.00;4960683;28;20500;-77
2020/12/17 06:27:50;;;;;;;2.40;1.00;;;;;;;8.36;100.00;100999.19;4966256;28;20450;-76
2020/12/17 06:30:17;;;;;;;1.80;0.50;;;;;;;8.47;100.00;100986.91;4970157;28;21032;-76
2020/12/17 06:33:04;;;;;;;4.13;0.77;;;;;;;8.49;100.00;100987.38;4957076;28;20460;-76
2020/12/17 06:35:52;;;;;;;2.20;0.60;;;;;;;8.46;100.00;100977.31;4891046;29;20480;-76
2020/12/17 06:38:23;;;;;;;2.47;0.73;;;;;;;8.45;100.00;100979.22;4874703;29;20845;-75
2020/12/17 06:41:09;;;;;;;3.40;0.97;;;;;;;8.60;100.00;100967.81;4883974;29;20518;-76
2020/12/17 06:43:38;;;;;;;3.00;0.77;;;;;;;8.54;100.00;100981.78;4819947;29;20998;-76
2020/12/17 06:46:04;;;;;;;3.37;0.63;;;;;;;8.69;100.00;100973.88;4828133;29;20444;-76
2020/12/17 06:48:31;;;;;;;2.50;0.63;;;;;;;8.57;100.00;100962.34;4816583;29;20474;-76
2020/12/17 06:50:57;;;;;;;3.30;0.80;;;;;;;8.50;100.00;100976.31;4821032;29;20834;-76
2020/12/17 06:53:41;;;;;;;4.33;0.90;;;;;;;8.56;100.00;100958.88;4828772;29;20486;-76
2020/12/17 06:56:15;;;;;;;4.57;0.80;;;;;;;8.69;100.00;100962.38;4813973;29;20448;-76
2020/12/17 06:59:01;;;;;;;2.27;0.80;;;;;;;8.86;100.00;100946.03;4800862;29;20622;-76
2020/12/17 07:01:27;;;;;;;2.17;0.63;;;;;;;8.75;100.00;100948.38;4746248;30;20539;-76
2020/12/17 07:03:53;;;;;;;1.73;0.43;;;;;;;8.46;100.00;100951.25;4746755;30;20540;-78
2020/12/17 07:06:20;;;;;;;3.67;1.20;;;;;;;8.50;100.00;100943.31;4743887;30;20222;-78
2020/12/17 07:08:49;;;;;;;2.93;0.57;;;;;;;8.47;100.00;100936.72;4747769;30;20534;-78
2020/12/17 07:11:41;;;;;;;2.43;0.43;;;;;;;8.56;100.00;100933.91;4743276;30;20452;-78
2020/12/17 07:14:09;;;;;;;2.90;1.00;;;;;;;8.61;100.00;100937.19;4778501;29;20485;-78
2020/12/17 07:16:37;;;;;;;4.80;1.00;;;;;;;8.63;100.00;100932.25;4780871;29;20551;-78
2020/12/17 07:19:27;;;;;;;2.30;0.50;;;;;;;8.56;100.00;100932.03;4796895;29;20539;-76
2020/12/17 07:22:22;;;;;;;2.93;0.93;;;;;;;8.54;100.00;100950.38;4852121;29;20506;-76
2020/12/17 07:24:50;;;;;;;1.97;0.40;;;;;;;8.44;100.00;100940.06;4848451;29;21086;-76
2020/12/17 07:27:17;;;;;;;3.57;1.07;;;;;;;8.56;100.00;100940.09;4852341;29;20443;-76
2020/12/17 07:29:44;;;;;;;3.03;0.67;;;;;;;8.70;100.00;100935.19;4855370;29;21131;-77
2020/12/17 07:32:39;;;;;;;3.50;1.33;;;;;;;8.79;100.00;100927.78;4853152;29;20463;-77
2020/12/17 07:35:07;;;;;;;1.90;0.40;;;;;;;8.78;100.00;100934.28;4847938;29;20470;-76
2020/12/17 07:37:45;;;;;;;3.93;1.20;;;;;;;8.47;100.00;100934.03;4850799;28;20531;-76
2020/12/17 07:40:13;;;;;;;2.77;0.87;;;;;;;8.52;100.00;100943.75;4958252;28;20496;-76
2020/12/17 07:42:39;;;;;;;4.60;1.03;;;;;;;8.56;100.00;100956.19;4965188;28;21016;-77
2020/12/17 07:45:06;;;;;;;3.03;0.70;;;;;;;8.57;100.00;100968.50;4969870;28;21126;-76
2020/12/17 07:47:32;;;;;;;2.83;0.90;;;;;;;8.58;100.00;100983.47;4969560;28;20449;-76
2020/12/17 07:49:58;;;;;;;2.33;0.70;;;;;;;8.58;100.00;100969.25;4950066;29;20447;-76
2020/12/17 07:52:33;;;;;;;2.50;0.60;;;;;;;8.56;100.00;100974.97;4963414;28;20667;-76
2020/12/17 07:55:00;;;;;;;4.17;0.70;;;;;;;8.62;100.00;100975.53;4969160;28;20523;-78
2020/12/17 07:57:26;;;;;;;2.83;0.50;;;;;;;8.72;100.00;100980.47;4962934;28;20547;-76
2020/12/17 07:59:51;;;;;;;3.13;0.67;;;;;;;8.68;100.00;100975.00;4966367;28;20437;-76
2020/12/17 08:02:17;;;;;;;2.57;0.60;;;;;;;8.78;100.00;100988.00;4970260;28;20437;-77
2020/12/17 08:04:53;;;;;;;1.97;0.33;;;;;;;8.77;100.00;100988.31;4969704;28;20225;-76
2020/12/17 08:07:21;;;;;;;1.90;0.40;;;;;;;8.76;100.00;100992.13;4962756;28;20545;-77
2020/12/17 08:10:01;;;;;;;2.70;0.80;;;;;;;8.75;100.00;100995.94;4969041;28;20918;-76
2020/12/17 08:12:26;;;;;;;2.37;0.70;;;;;;;8.77;100.00;100986.41;4926183;28;20449;-75
2020/12/17 08:14:53;;;;;;;2.20;0.50;;;;;;;8.59;100.00;100984.28;4967606;28;20461;-74
2020/12/17 08:17:20;;;;;;;2.40;0.80;;;;;;;8.73;100.00;100974.78;4971531;28;20556;-76
2020/12/17 08:19:57;;;;;;;1.80;0.30;;;;;;;8.89;100.00;100964.94;4949192;28;20437;-76
2020/12/17 08:22:28;;;;;;;3.20;0.80;;;;;;;9.01;100.00;100962.28;4972493;28;20441;-76
2020/12/17 08:24:55;;;;;;;2.50;0.70;;;;;;;8.98;100.00;100962.94;4966388;28;20487;-77
2020/12/17 08:27:22;;;;;;;3.50;0.90;;;;;;;8.94;100.00;100978.13;4973087;28;20441;-76
2020/12/17 08:29:48;;;;;;;2.70;0.53;;;;;;;8.95;100.00;100981.63;4969720;28;20477;-75
2020/12/17 08:32:13;;;;;;;2.23;0.63;;;;;;;8.77;100.00;100978.34;4972083;28;20449;-76
2020/12/17 08:34:52;;;;;;;2.70;0.60;;;;;;;8.73;100.00;100974.78;4958413;28;20679;-76
2020/12/17 08:37:19;;;;;;;2.50;0.67;;;;;;;8.72;100.00;100975.13;4968600;28;20452;-76
2020/12/17 08:39:44;;;;;;;2.30;0.47;;;;;;;8.69;100.00;100970.41;4936062;28;20655;-77
2020/12/17 08:42:13;;;;;;;2.20;0.60;;;;;;;8.74;100.00;100972.88;4968741;28;20461;-77
2020/12/17 08:44:41;;;;;;;3.17;0.70;;;;;;;8.93;100.00;100976.59;4962942;28;20218;-75
2020/12/17 08:47:07;;;;;;;2.80;0.53;;;;;;;9.09;100.00;100977.50;4952035;28;20430;-77
2020/12/17 08:49:33;;;;;;;2.43;0.70;;;;;;;9.08;100.00;100975.91;4940811;28;20478;-74
2020/12/17 08:51:59;;;;;;;2.40;0.80;;;;;;;8.96;100.00;100973.22;4946296;28;20861;-76
2020/12/17 08:54:36;;;;;;;2.63;0.60;;;;;;;8.94;100.00;100972.78;4968276;28;20472;-76
2020/12/17 08:57:07;;;;;;;3.67;0.83;;;;;;;8.93;100.00;100979.28;4957658;28;20177;-77
2020/12/17 08:59:33;;;;;;;2.90;0.83;;;;;;;8.97;100.00;100982.84;4958207;28;20470;-76
2020/12/17 09:01:59;;;;;;;2.00;0.67;;;;;;;9.07;100.00;100985.09;4974629;28;20457;-75
2020/12/17 09:04:26;;;;;;;2.90;0.50;;;;;;;9.10;100.00;100979.03;4975326;28;20479;-77
2020/12/17 09:06:56;;;;;;;1.93;0.50;;;;;;;9.18;100.00;100990.78;4972395;28;20285;-76
2020/12/17 09:09:27;;;;;;;1.93;0.50;;;;;;;9.14;100.00;100978.38;4975529;28;20444;-77
2020/12/17 09:11:58;;;;;;;3.43;0.80;;;;;;;9.15;100.00;100983.41;4974154;28;20435;-74
2020/12/17 09:14:29;;;;;;;1.70;0.37;;;;;;;9.15;100.00;100982.63;4970182;28;20462;-77
2020/12/17 09:17:12;;;;;;;2.40;0.50;;;;;;;9.19;100.00;100970.88;4971039;28;20454;-77
2020/12/17 09:19:38;;;;;;;5.87;1.30;;;;;;;9.20;100.00;100968.97;4955124;28;20465;-76
2020/12/17 09:22:03;;;;;;;2.50;0.47;;;;;;;9.25;100.00;100979.50;4973151;28;20492;-74
2020/12/17 09:24:31;;;;;;;1.97;0.60;;;;;;;9.22;100.00;100983.63;4971170;28;20481;-77
2020/12/17 09:26:57;;;;;;;2.57;0.60;;;;;;;9.35;100.00;100981.72;4975338;28;20194;-77
2020/12/17 09:29:24;;;;;;;2.70;0.50;;;;;;;9.23;100.00;100982.53;4972538;28;20460;-77
2020/12/17 09:31:49;;;;;;;2.10;0.50;;;;;;;9.24;100.00;100983.28;4967872;28;20433;-76
2020/12/17 09:34:17;;;;;;;2.13;0.40;;;;;;;9.27;100.00;100972.63;4972907;28;20769;-77
2020/12/17 09:36:44;;;;;;;2.57;0.73;;;;;;;9.30;100.00;100973.88;4974809;28;20180;-77
2020/12/17 09:39:15;;;;;;;3.60;0.63;;;;;;;9.35;100.00;100982.50;4948903;28;20456;-77
2020/12/17 09:41:57;;;;;;;2.70;0.73;;;;;;;9.33;100.00;100978.59;4955580;28;20457;-76
2020/12/17 09:44:41;;;;;;;2.07;0.37;;;;;;;9.29;100.00;100988.44;4969228;28;20488;-77
2020/12/17 09:47:06;;;;;;;2.67;0.67;;;;;;;9.35;100.00;100979.81;4962226;28;20905;-76
2020/12/17 09:49:39;;;;;;;2.27;0.60;;;;;;;9.51;100.00;100996.03;4957876;28;20441;-76
2020/12/17 09:52:08;;;;;;;3.03;0.90;;;;;;;9.37;100.00;100985.63;4959144;28;20250;-77
2020/12/17 09:54:38;;;;;;;2.43;0.50;;;;;;;9.34;100.00;100985.53;4972764;28;20567;-77
2020/12/17 09:57:12;;;;;;;3.20;0.80;;;;;;;9.25;100.00;100977.59;4966842;28;20454;-76
2020/12/17 09:59:40;;;;;;;2.57;0.43;;;;;;;9.39;100.00;100979.94;4965505;28;20517;-76
2020/12/17 10:02:07;;;;;;;1.97;0.40;;;;;;;9.34;100.00;100988.22;4971089;28;20508;-75
2020/12/17 10:04:33;;;;;;;2.20;0.70;;;;;;;9.36;100.00;100994.03;4971327;28;20567;-77
2020/12/17 10:06:59;;;;;;;4.00;0.43;;;;;;;9.32;100.00;100998.50;4951604;28;20528;-77
2020/12/17 10:09:25;;;;;;;1.90;0.43;;;;;;;9.33;100.00;101005.47;4972916;28;20445;-77
2020/12/17 10:11:52;;;;;;;2.23;0.40;;;;;;;9.39;100.00;100998.75;4955166;28;20270;-76
2020/12/17 10:14:18;;;;;;;2.40;0.60;;;;;;;9.28;100.00;100995.72;4964844;28;20475;-77
2020/12/17 10:16:45;;;;;;;2.93;0.90;;;;;;;9.23;100.00;101000.53;4962801;28;20433;-76
2020/12/17 10:19:11;;;;;;;2.40;0.50;;;;;;;9.39;100.00;100999.50;4971315;28;21264;-77
2020/12/17 10:21:38;;;;;;;2.23;0.50;;;;;;;9.36;100.00;101015.53;4952473;28;20446;-77
2020/12/17 10:24:07;;;;;;;2.90;0.80;;;;;;;9.46;100.00;101010.50;4968023;28;20793;-77
2020/12/17 10:26:33;;;;;;;1.73;0.50;;;;;;;9.50;100.00;101011.38;4966783;28;20443;-75
2020/12/17 10:29:02;;;;;;;1.93;0.40;;;;;;;9.30;100.00;101006.13;4971441;28;20449;-76
2020/12/17 10:31:28;;;;;;;2.43;0.60;;;;;;;9.44;100.00;101006.56;4968687;28;20457;-78
2020/12/17 10:33:55;;;;;;;2.07;0.60;;;;;;;9.23;100.00;101001.34;4971350;28;20480;-77
2020/12/17 10:36:22;;;;;;;2.63;0.83;;;;;;;9.24;100.00;101002.09;4964609;28;20528;-78
2020/12/17 10:38:51;;;;;;;3.07;0.60;;;;;;;9.27;100.00;100998.75;4969716;28;21011;-76
2020/12/17 10:41:26;;;;;;;1.70;0.50;;;;;;;9.26;100.00;101005.22;4968189;28;20446;-77
2020/12/17 10:43:53;;;;;;;3.53;0.80;;;;;;;9.33;100.00;101002.78;4946896;28;20580;-78
2020/12/17 10:46:19;;;;;;;2.23;0.67;;;;;;;9.34;100.00;101009.72;4948122;28;20438;-78
2020/12/17 10:48:45;;;;;;;1.70;0.30;;;;;;;9.45;100.00;101000.84;4966066;28;20796;-78
2020/12/17 10:51:15;;;;;;;1.93;0.57;;;;;;;9.26;100.00;100997.16;4945316;28;20441;-78
2020/12/17 10:53:41;;;;;;;2.83;0.60;;;;;;;9.39;100.00;100988.75;4968373;28;20809;-77
2020/12/17 10:56:10;;;;;;;2.37;0.50;;;;;;;9.31;100.00;100996.97;4944656;28;20469;-78
2020/12/17 10:58:37;;;;;;;2.13;0.50;;;;;;;9.24;100.00;100992.13;4969163;28;20484;-77
2020/12/17 11:01:03;;;;;;;1.97;0.40;;;;;;;9.37;100.00;100995.63;4966942;28;20458;-77
2020/12/17 11:03:28;;;;;;;2.63;0.70;;;;;;;9.42;100.00;100995.38;4971650;28;20448;-77
2020/12/17 11:05:56;;;;;;;1.60;0.40;;;;;;;9.47;100.00;100995.13;4950962;28;20469;-77
2020/12/17 11:08:24;;;;;;;1.60;0.30;;;;;;;9.41;100.00;100988.41;4970743;28;20190;-77
2020/12/17 11:10:50;;;;;;;1.83;0.47;;;;;;;9.37;100.00;100984.88;4969349;28;20541;-78
2020/12/17 11:13:16;;;;;;;2.13;0.67;;;;;;;9.44;100.00;100985.84;4967215;28;20953;-78
2020/12/17 11:15:50;;;;;;;1.93;0.30;;;;;;;9.37;100.00;100999.06;4972844;28;20261;-77
2020/12/17 11:18:17;;;;;;;2.37;0.77;;;;;;;9.44;100.00;100993.91;4975594;28;20472;-77
2020/12/17 11:20:43;;;;;;;2.13;0.40;;;;;;;9.66;100.00;100998.78;4941556;28;20433;-78
2020/12/17 11:23:10;;;;;;;1.80;0.30;;;;;;;9.63;100.00;100998.69;4944188;28;20542;-77
2020/12/17 11:25:39;;;;;;;2.00;0.60;;;;;;;9.63;100.00;101001.38;4965950;28;20485;-77
2020/12/17 11:28:06;;;;;;;2.80;1.00;;;;;;;9.49;100.00;101000.94;4956576;28;20524;-78